Svend Maersk — OYJS2 — position and weather

sailwx.info

Track history (hours):
 
Tides and Currents Weather Stations Pressure Air Temp Water Temp Dewpoint Dewpoint Depression Visibility Wind Speed Wind Dir Waves Ship Positions

Svend Maersk

Last reported at 2015-Jul-31 18:22 UTC. Time now 2015-Aug-03 23:21 UTC.
Position N 25°46' W 115°29'.

Type: Ship (hazmat cat A). MMSI: 219791000.

Date/timePositionNaut miles runAvg speedWind from/ knotsBaromVisibWave heightAir tempDewpointWater temp
2015-Jul-31 18:22N 25°46' W 115°29'1820.6
2015-Jul-31 17:30N 25°58' W 115°44'25318.2
2015-Jul-31 03:32N 28°36' W 119°27'2419.1
2015-Jul-31 02:17N 28°51' W 119°48'7719.5
2015-Jul-30 22:18N 29°41' W 120°56'1519.8
2015-Jul-30 21:33N 29°50' W 121°09'2119.6
2015-Jul-30 20:29N 30°03' W 121°28'17819.7
2015-Jul-30 11:25N 31°55' W 124°10'4119.9
2015-Jul-30 09:22N 32°20' W 124°48'3519.5
2015-Jul-30 07:33N 32°41' W 125°21'1919.4
2015-Jul-30 06:33N 32°53' W 125°40'2219.4
2015-Jul-30 05:25N 33°07' W 126°01'2419.4
2015-Jul-30 04:10N 33°21' W 126°24'5419.3
2015-Jul-30 01:23N 33°53' W 127°16'2319.2
2015-Jul-30 00:09N 34°07' W 127°39'1219.5
2015-Jul-29 23:33N 34°14' W 127°50'2019.5
2015-Jul-29 22:31N 34°26' W 128°10'1919.6
2015-Jul-29 21:33N 34°37' W 128°28'21118.9
2015-Jul-29 10:21N 36°36' W 132°03'1618.4
2015-Jul-29 09:28N 36°45' W 132°20'1718.4
2015-Jul-29 08:33N 36°55' W 132°37'5718.9
2015-Jul-29 05:31N 37°26' W 133°38'  
Track history (hours):
 
Tides and Currents Weather Stations Pressure Air Temp Water Temp Dewpoint Dewpoint Depression Visibility Wind Speed Wind Dir Waves Ship Positions

Svend Maersk

Last reported at 2015-Jul-31 18:22 UTC. Time now 2015-Aug-03 23:21 UTC.
Position N 25°46' W 115°29'.

Type: Ship (hazmat cat A). MMSI: 219791000.

Date/timePositionNaut miles runAvg speedWind from/ knotsBaromVisibWave heightAir tempDewpointWater temp
2015-Jul-31 18:22N 25°46' W 115°29'1820.6
2015-Jul-31 17:30N 25°58' W 115°44'25318.2
2015-Jul-31 03:32N 28°36' W 119°27'2419.1
2015-Jul-31 02:17N 28°51' W 119°48'7719.5
2015-Jul-30 22:18N 29°41' W 120°56'1519.8
2015-Jul-30 21:33N 29°50' W 121°09'2119.6
2015-Jul-30 20:29N 30°03' W 121°28'17819.7
2015-Jul-30 11:25N 31°55' W 124°10'4119.9
2015-Jul-30 09:22N 32°20' W 124°48'3519.5
2015-Jul-30 07:33N 32°41' W 125°21'1919.4
2015-Jul-30 06:33N 32°53' W 125°40'2219.4
2015-Jul-30 05:25N 33°07' W 126°01'2419.4
2015-Jul-30 04:10N 33°21' W 126°24'5419.3
2015-Jul-30 01:23N 33°53' W 127°16'2319.2
2015-Jul-30 00:09N 34°07' W 127°39'1219.5
2015-Jul-29 23:33N 34°14' W 127°50'2019.5
2015-Jul-29 22:31N 34°26' W 128°10'1919.6
2015-Jul-29 21:33N 34°37' W 128°28'21118.9
2015-Jul-29 10:21N 36°36' W 132°03'1618.4
2015-Jul-29 09:28N 36°45' W 132°20'1718.4
2015-Jul-29 08:33N 36°55' W 132°37'5718.9
2015-Jul-29 05:31N 37°26' W 133°38'  

Dump ship's entire track history